createdAt,value
2022-09-23T00:01:15.266Z,93.04
2022-09-23T00:03:45.512Z,93.02
2022-09-23T00:06:15.576Z,93.04
2022-09-23T00:08:43.811Z,92.98
2022-09-23T00:11:22.523Z,92.94
2022-09-23T00:13:51.738Z,92.81
2022-09-23T00:16:36.655Z,93.00
2022-09-23T00:19:04.778Z,92.78
2022-09-23T00:21:31.434Z,92.80
2022-09-23T00:23:58.004Z,92.61
2022-09-23T00:26:25.503Z,92.61
2022-09-23T00:28:52.633Z,92.72
2022-09-23T00:31:26.081Z,92.76
2022-09-23T00:33:54.871Z,92.90
2022-09-23T00:36:21.492Z,92.55
2022-09-23T00:38:48.071Z,92.82
2022-09-23T00:41:17.818Z,92.74
2022-09-23T00:43:53.595Z,92.75
2022-09-23T00:46:29.855Z,92.61
2022-09-23T00:49:02.162Z,92.94
2022-09-23T00:51:35.797Z,92.74
2022-09-23T00:54:03.383Z,92.72
2022-09-23T00:56:32.254Z,93.15
2022-09-23T00:59:00.563Z,93.61
2022-09-23T01:01:27.226Z,93.24
2022-09-23T01:03:55.327Z,93.39
2022-09-23T01:06:22.782Z,93.56
2022-09-23T01:08:49.771Z,93.32
2022-09-23T01:11:16.267Z,93.48
2022-09-23T01:14:20.844Z,93.65
2022-09-23T01:16:51.223Z,93.78
2022-09-23T01:19:27.809Z,93.92
2022-09-23T01:22:04.990Z,93.91
2022-09-23T01:25:05.716Z,94.02
2022-09-23T01:27:52.281Z,94.02
2022-09-23T01:30:47.919Z,94.09
2022-09-23T01:33:23.104Z,94.11
2022-09-23T01:36:12.101Z,94.35
2022-09-23T01:38:44.814Z,94.09
2022-09-23T01:41:24.239Z,94.50
2022-09-23T01:43:56.426Z,94.95
2022-09-23T01:46:42.914Z,95.53
2022-09-23T01:49:15.042Z,95.44
2022-09-23T01:51:51.117Z,95.00
2022-09-23T01:54:32.784Z,95.31
2022-09-23T01:57:16.958Z,95.21
2022-09-23T01:59:50.114Z,95.20
2022-09-23T02:02:33.411Z,95.25
2022-09-23T02:05:11.550Z,95.39
2022-09-23T02:07:47.099Z,95.13
2022-09-23T02:10:20.572Z,95.83
2022-09-23T02:12:50.711Z,95.67
2022-09-23T02:15:21.201Z,95.79
2022-09-23T02:17:54.818Z,95.66
2022-09-23T02:20:42.120Z,95.39
2022-09-23T02:23:15.472Z,95.47
2022-09-23T02:26:03.201Z,95.75
2022-09-23T02:28:38.944Z,95.65
2022-09-23T02:31:12.166Z,95.64
2022-09-23T02:33:47.029Z,95.77
2022-09-23T02:36:26.108Z,95.92
2022-09-23T02:38:58.227Z,96.03
2022-09-23T02:41:36.828Z,95.79
2022-09-23T02:44:11.742Z,95.76
